createdAt,value
2022-10-23T00:00:20.000Z,11.50
2022-10-23T00:02:56.893Z,11.50
2022-10-23T00:05:28.071Z,11.40
2022-10-23T00:08:01.501Z,11.40
2022-10-23T00:10:31.856Z,11.30
2022-10-23T00:13:01.891Z,11.30
2022-10-23T00:15:36.961Z,11.20
2022-10-23T00:18:09.173Z,11.10
2022-10-23T00:20:40.463Z,11.00
2022-10-23T00:23:10.141Z,11.00
2022-10-23T00:25:39.110Z,10.90
2022-10-23T00:28:08.950Z,10.90
2022-10-23T00:30:44.253Z,10.90
2022-10-23T00:33:13.693Z,10.90
2022-10-23T00:38:27.922Z,10.90
2022-10-23T00:40:59.043Z,10.80
2022-10-23T00:43:30.981Z,10.80
2022-10-23T00:46:03.991Z,10.80
2022-10-23T00:48:35.353Z,10.80
2022-10-23T00:51:04.845Z,10.80
2022-10-23T00:53:34.622Z,10.80
2022-10-23T00:56:03.715Z,10.80
2022-10-23T00:58:35.501Z,10.70
2022-10-23T01:01:22.872Z,10.70
2022-10-23T01:03:54.542Z,10.60
2022-10-23T01:06:36.631Z,10.50
2022-10-23T01:09:14.738Z,10.50
2022-10-23T01:11:49.079Z,10.50
2022-10-23T01:14:31.651Z,10.60
2022-10-23T01:17:10.962Z,10.50
2022-10-23T01:19:57.850Z,10.50
2022-10-23T01:22:44.105Z,10.50
2022-10-23T01:25:28.930Z,10.40
2022-10-23T01:28:08.019Z,10.40
2022-10-23T01:33:14.962Z,10.50
2022-10-23T01:35:49.081Z,10.60
2022-10-23T01:38:22.280Z,10.70
2022-10-23T01:40:57.790Z,10.60
2022-10-23T01:43:35.572Z,10.60
2022-10-23T01:46:10.392Z,10.50
2022-10-23T01:48:39.910Z,10.40
2022-10-23T01:51:12.361Z,10.40
2022-10-23T01:53:45.010Z,10.40
2022-10-23T01:56:16.702Z,10.40
2022-10-23T01:58:52.779Z,10.30
2022-10-23T02:01:28.405Z,10.20
2022-10-23T02:06:32.119Z,10.10
2022-10-23T02:09:02.371Z,10.00
2022-10-23T02:11:40.351Z,10.00
2022-10-23T02:14:20.371Z,10.00
2022-10-23T02:16:53.525Z,10.00
2022-10-23T02:19:32.651Z,10.10
2022-10-23T02:22:11.271Z,10.10
2022-10-23T02:24:48.590Z,10.20
2022-10-23T02:27:21.850Z,10.20
2022-10-23T02:29:57.001Z,10.30
2022-10-23T02:32:29.161Z,10.30
2022-10-23T02:34:59.181Z,10.30
2022-10-23T02:37:27.880Z,10.40
2022-10-23T02:40:00.624Z,10.50
2022-10-23T02:42:37.161Z,10.50
2022-10-23T02:45:19.620Z,10.40
2022-10-23T02:48:01.840Z,10.40
2022-10-23T02:50:37.542Z,10.40
2022-10-23T02:53:14.872Z,10.40
2022-10-23T02:55:56.842Z,10.40
2022-10-23T02:58:33.701Z,10.60
2022-10-23T03:01:09.440Z,10.70
2022-10-23T03:03:46.861Z,10.70
2022-10-23T03:06:16.510Z,10.80
2022-10-23T03:08:47.110Z,10.80
2022-10-23T03:11:18.352Z,10.70
2022-10-23T03:13:48.301Z,10.60
2022-10-23T03:16:21.488Z,10.60
2022-10-23T03:18:51.446Z,10.50
2022-10-23T03:21:23.310Z,10.40
2022-10-23T03:23:53.131Z,10.40
2022-10-23T03:26:22.021Z,10.40
2022-10-23T03:28:51.537Z,10.40
2022-10-23T03:31:23.190Z,10.50
2022-10-23T03:33:52.828Z,10.60
2022-10-23T03:36:21.907Z,10.60
2022-10-23T03:38:50.401Z,10.70
2022-10-23T03:41:20.395Z,10.70
2022-10-23T03:43:49.740Z,10.80
2022-10-23T03:46:19.848Z,10.80
2022-10-23T03:48:58.429Z,10.90
2022-10-23T03:51:29.151Z,10.80
2022-10-23T03:53:58.622Z,10.80
2022-10-23T03:56:29.689Z,10.80
2022-10-23T03:58:58.731Z,10.80
2022-10-23T04:01:27.466Z,10.90
2022-10-23T04:03:58.837Z,10.90
2022-10-23T04:06:29.411Z,10.90
2022-10-23T04:08:59.374Z,10.90
2022-10-23T04:11:32.102Z,10.90
2022-10-23T04:16:47.072Z,10.90
2022-10-23T04:19:20.772Z,11.00
2022-10-23T04:21:49.822Z,11.00
2022-10-23T04:24:22.351Z,11.10
2022-10-23T04:26:53.194Z,11.20
2022-10-23T04:29:24.779Z,11.10
2022-10-23T04:31:54.039Z,11.20
2022-10-23T04:34:26.437Z,11.20
2022-10-23T04:36:57.933Z,11.30
2022-10-23T04:39:28.280Z,11.30
2022-10-23T04:41:57.779Z,11.30
2022-10-23T04:47:17.460Z,11.30
2022-10-23T04:49:53.172Z,11.30
2022-10-23T04:52:22.681Z,11.30
2022-10-23T04:54:54.088Z,11.30
2022-10-23T04:57:26.372Z,11.30
2022-10-23T04:59:55.752Z,11.30
2022-10-23T05:02:25.571Z,11.30
2022-10-23T05:04:56.660Z,11.40
2022-10-23T05:07:26.533Z,11.40
2022-10-23T05:09:57.612Z,11.50
2022-10-23T05:12:27.963Z,11.50
2022-10-23T05:14:59.211Z,11.60
2022-10-23T05:17:33.519Z,11.60
2022-10-23T05:20:09.202Z,11.60
2022-10-23T05:22:43.161Z,11.60
2022-10-23T05:25:14.579Z,11.60
2022-10-23T05:27:45.163Z,11.60
2022-10-23T05:30:15.531Z,11.70
2022-10-23T05:32:47.290Z,11.70
2022-10-23T05:35:25.651Z,11.60
2022-10-23T05:37:59.460Z,11.60
2022-10-23T05:40:29.540Z,11.60
2022-10-23T05:42:59.944Z,11.70
2022-10-23T05:45:32.241Z,11.70
2022-10-23T05:48:10.923Z,11.70
2022-10-23T05:50:49.820Z,11.70
2022-10-23T05:53:19.620Z,11.70
2022-10-23T05:55:51.581Z,11.60
2022-10-23T05:58:20.791Z,11.70
2022-10-23T06:00:50.773Z,11.70
2022-10-23T06:03:20.823Z,11.70
2022-10-23T06:05:53.131Z,11.70
2022-10-23T06:08:31.910Z,11.80
2022-10-23T06:11:07.892Z,11.80
2022-10-23T06:13:37.611Z,11.90
2022-10-23T06:16:16.343Z,11.90
2022-10-23T06:18:46.601Z,12.00
2022-10-23T06:21:19.221Z,12.00
2022-10-23T06:23:50.471Z,12.00
2022-10-23T06:26:21.251Z,12.00
2022-10-23T06:28:52.971Z,12.00
2022-10-23T06:31:26.881Z,12.10
2022-10-23T06:34:04.158Z,12.10
2022-10-23T06:36:38.278Z,12.20
2022-10-23T06:39:08.522Z,12.10
2022-10-23T06:41:40.639Z,12.10
2022-10-23T06:44:11.602Z,12.10
2022-10-23T06:46:43.439Z,12.20
2022-10-23T06:49:12.771Z,12.20
2022-10-23T06:51:46.538Z,12.20
2022-10-23T06:54:16.281Z,12.20
2022-10-23T06:56:46.010Z,12.20
2022-10-23T06:59:17.209Z,12.20
2022-10-23T07:01:49.637Z,12.20
2022-10-23T07:04:20.191Z,12.20
2022-10-23T07:06:52.442Z,12.20
2022-10-23T07:09:22.120Z,12.30
2022-10-23T07:11:51.983Z,12.30
2022-10-23T07:14:24.461Z,12.30
2022-10-23T07:16:54.402Z,12.40
2022-10-23T07:19:23.810Z,12.40
2022-10-23T07:21:55.680Z,12.50
2022-10-23T07:24:24.421Z,12.50
2022-10-23T07:26:54.220Z,12.60
2022-10-23T07:29:26.191Z,12.60
2022-10-23T07:31:54.792Z,12.70
2022-10-23T07:34:24.741Z,12.70
2022-10-23T07:36:57.111Z,12.80
2022-10-23T07:39:27.155Z,12.90
2022-10-23T07:41:55.873Z,12.90
2022-10-23T07:44:28.591Z,13.00
2022-10-23T07:46:57.810Z,13.00
2022-10-23T07:49:26.738Z,13.10
2022-10-23T07:51:59.097Z,13.10
2022-10-23T07:54:30.207Z,13.20
2022-10-23T07:56:59.821Z,13.20
2022-10-23T07:59:35.839Z,13.20
2022-10-23T08:02:11.359Z,13.30
2022-10-23T08:04:41.842Z,13.40
2022-10-23T08:07:12.661Z,13.40
2022-10-23T08:09:44.191Z,13.50
2022-10-23T08:12:14.322Z,13.60
2022-10-23T08:14:44.021Z,13.70
2022-10-23T08:17:14.491Z,13.70
2022-10-23T08:19:46.862Z,13.80
2022-10-23T08:22:18.584Z,13.80
2022-10-23T08:24:47.871Z,13.80
2022-10-23T08:27:17.682Z,13.80
2022-10-23T08:29:47.469Z,13.90
2022-10-23T08:32:17.955Z,13.90
2022-10-23T08:34:49.559Z,13.90
2022-10-23T08:37:22.690Z,13.90
2022-10-23T08:39:55.549Z,14.00
2022-10-23T08:42:27.854Z,14.00
2022-10-23T08:45:08.196Z,14.00
2022-10-23T08:47:43.821Z,14.10
2022-10-23T08:50:24.246Z,14.20
2022-10-23T08:53:02.591Z,14.20
2022-10-23T08:55:38.202Z,14.30
2022-10-23T08:58:17.538Z,14.40
2022-10-23T09:01:09.342Z,14.50
2022-10-23T09:03:40.419Z,14.60
2022-10-23T09:06:25.488Z,14.70
2022-10-23T09:09:26.094Z,14.70
2022-10-23T09:12:07.250Z,14.80
2022-10-23T09:14:54.481Z,15.20
2022-10-23T09:17:27.203Z,15.40
2022-10-23T09:20:09.543Z,15.50
2022-10-23T09:22:40.414Z,15.50
2022-10-23T09:25:19.579Z,15.50
2022-10-23T09:27:54.740Z,15.50
2022-10-23T09:30:35.753Z,15.60
2022-10-23T09:33:23.014Z,15.60
2022-10-23T09:35:59.713Z,15.70
2022-10-23T09:38:36.010Z,15.70
2022-10-23T09:41:21.849Z,15.90
2022-10-23T09:44:18.116Z,15.90
2022-10-23T09:46:54.887Z,16.10
2022-10-23T09:49:26.742Z,16.20
2022-10-23T09:52:05.180Z,16.30
2022-10-23T09:54:40.878Z,16.40
2022-10-23T09:57:24.937Z,16.50
2022-10-23T09:59:56.975Z,16.70
2022-10-23T10:02:31.937Z,16.70
2022-10-23T10:05:01.581Z,16.70
2022-10-23T10:07:34.750Z,16.80
2022-10-23T10:10:15.229Z,16.80
2022-10-23T10:12:55.285Z,16.90
2022-10-23T10:15:31.749Z,16.90
2022-10-23T10:18:16.160Z,17.00
2022-10-23T10:21:16.463Z,17.10
2022-10-23T10:23:51.873Z,17.20
2022-10-23T10:26:32.125Z,17.20
2022-10-23T10:29:18.592Z,17.30
2022-10-23T10:32:06.433Z,17.40
2022-10-23T10:34:44.840Z,17.40
2022-10-23T10:37:25.754Z,17.50
2022-10-23T10:40:08.454Z,17.60
2022-10-23T10:43:04.832Z,17.70
2022-10-23T10:45:41.116Z,17.80
2022-10-23T10:48:45.617Z,17.90
2022-10-23T10:51:23.257Z,18.00
2022-10-23T10:54:15.875Z,17.90
2022-10-23T10:56:52.552Z,18.00
2022-10-23T10:59:27.782Z,18.10
2022-10-23T11:02:05.842Z,18.10
2022-10-23T11:04:42.855Z,18.20
2022-10-23T11:07:23.874Z,18.30
2022-10-23T11:09:54.346Z,18.50
2022-10-23T11:12:30.261Z,18.90
2022-10-23T11:15:01.052Z,19.20
2022-10-23T11:17:39.711Z,19.60
2022-10-23T11:20:36.103Z,19.90
2022-10-23T11:23:17.591Z,20.30
2022-10-23T11:26:03.992Z,20.60
2022-10-23T11:28:52.496Z,20.90
2022-10-23T11:31:34.503Z,21.30
2022-10-23T11:34:32.671Z,21.50
2022-10-23T11:37:03.984Z,21.70
2022-10-23T11:39:36.191Z,22.00
2022-10-23T11:42:17.173Z,22.00
2022-10-23T11:44:48.987Z,21.70
2022-10-23T11:47:47.539Z,21.50
2022-10-23T11:50:39.539Z,21.10
2022-10-23T11:53:34.201Z,20.90
2022-10-23T11:56:06.910Z,20.60
2022-10-23T11:58:47.963Z,20.50
2022-10-23T12:01:38.349Z,20.50
2022-10-23T12:04:23.230Z,20.40
2022-10-23T12:06:56.496Z,20.50
2022-10-23T12:09:30.801Z,20.50
2022-10-23T12:12:20.279Z,20.40
2022-10-23T12:14:51.003Z,20.40
2022-10-23T12:17:32.336Z,20.50
2022-10-23T12:20:21.603Z,20.50
2022-10-23T12:23:23.312Z,20.50
2022-10-23T12:26:17.165Z,20.50
2022-10-23T12:28:55.864Z,20.40
2022-10-23T12:31:47.001Z,20.50
2022-10-23T12:34:45.766Z,20.50
2022-10-23T12:37:59.398Z,20.50
2022-10-23T12:40:33.168Z,20.40
2022-10-23T12:43:03.488Z,20.50
2022-10-23T12:45:33.917Z,20.50
2022-10-23T12:48:03.869Z,20.50
2022-10-23T12:50:35.148Z,20.60
2022-10-23T12:53:09.269Z,20.60
2022-10-23T12:58:32.543Z,20.30
2022-10-23T13:01:07.319Z,20.20
2022-10-23T13:03:39.684Z,20.00
2022-10-23T13:06:11.792Z,19.80
2022-10-23T13:08:45.047Z,19.50
2022-10-23T13:11:17.585Z,19.40
2022-10-23T13:13:49.701Z,19.20
2022-10-23T13:16:22.895Z,19.00
2022-10-23T13:18:55.465Z,18.80
2022-10-23T13:21:31.193Z,18.70
2022-10-23T13:24:03.309Z,18.60
2022-10-23T13:26:43.228Z,18.50
2022-10-23T13:29:22.917Z,18.40
2022-10-23T13:31:53.857Z,18.20
2022-10-23T13:34:29.764Z,18.10
2022-10-23T13:37:06.601Z,18.00
2022-10-23T13:39:39.276Z,17.90
2022-10-23T13:42:18.608Z,17.90
2022-10-23T13:44:50.932Z,17.80
2022-10-23T13:47:22.139Z,17.70
2022-10-23T13:49:54.855Z,17.70
2022-10-23T13:52:24.913Z,17.60
2022-10-23T13:54:55.080Z,17.60
2022-10-23T13:57:25.767Z,17.60
2022-10-23T13:59:56.652Z,17.60
2022-10-23T14:02:26.794Z,17.60
2022-10-23T14:04:57.224Z,17.60
2022-10-23T14:07:26.322Z,17.60
2022-10-23T14:09:59.143Z,17.70
2022-10-23T14:12:31.354Z,17.70
2022-10-23T14:15:02.597Z,17.70
2022-10-23T14:17:34.265Z,17.70
2022-10-23T14:20:06.089Z,17.60
2022-10-23T14:22:38.746Z,17.60
2022-10-23T14:25:12.015Z,17.50
2022-10-23T14:27:45.154Z,17.50
2022-10-23T14:30:16.398Z,17.40
2022-10-23T14:32:45.871Z,17.40
2022-10-23T14:35:16.645Z,17.30
2022-10-23T14:37:48.895Z,17.30
2022-10-23T14:40:24.828Z,17.30
2022-10-23T14:42:55.874Z,17.30
2022-10-23T14:45:27.003Z,17.20
2022-10-23T14:48:05.688Z,17.20
2022-10-23T14:50:39.168Z,17.20
2022-10-23T14:53:09.063Z,17.20
2022-10-23T14:55:40.727Z,17.10
2022-10-23T14:58:11.950Z,17.10
2022-10-23T15:00:42.291Z,17.00
2022-10-23T15:03:11.273Z,17.00
2022-10-23T15:05:44.464Z,17.00
2022-10-23T15:08:15.430Z,16.90
2022-10-23T15:10:46.553Z,16.90
2022-10-23T15:14:07.627Z,16.80
2022-10-23T15:17:37.183Z,16.80
2022-10-23T15:20:13.716Z,16.70
2022-10-23T15:22:52.653Z,16.70
2022-10-23T15:25:22.310Z,16.60
2022-10-23T15:27:54.251Z,16.50
2022-10-23T15:30:26.101Z,16.50
2022-10-23T15:32:57.986Z,16.40
2022-10-23T15:35:32.501Z,16.40
2022-10-23T15:38:19.571Z,16.30
2022-10-23T15:40:50.783Z,16.20
2022-10-23T15:43:23.306Z,16.20
2022-10-23T15:45:54.728Z,16.10
2022-10-23T15:48:24.991Z,16.00
2022-10-23T15:50:57.391Z,16.00
2022-10-23T15:53:29.710Z,15.90
2022-10-23T15:56:01.605Z,15.90
2022-10-23T15:58:33.373Z,15.90
2022-10-23T16:01:06.718Z,15.80
2022-10-23T16:03:37.678Z,15.80
2022-10-23T16:06:22.344Z,15.80
2022-10-23T16:11:29.588Z,15.70
2022-10-23T16:14:05.965Z,15.70
2022-10-23T16:16:36.674Z,15.60
2022-10-23T16:19:08.269Z,15.60
2022-10-23T16:21:40.802Z,15.50
2022-10-23T16:24:11.585Z,15.60
2022-10-23T16:26:40.942Z,15.50
2022-10-23T16:29:12.920Z,15.50
2022-10-23T16:31:44.442Z,15.50
2022-10-23T16:34:15.609Z,15.50
2022-10-23T16:36:47.041Z,15.40
2022-10-23T16:39:21.727Z,15.50
2022-10-23T16:41:51.211Z,15.50
2022-10-23T16:44:21.860Z,15.40
2022-10-23T16:46:53.549Z,15.40
2022-10-23T16:49:24.779Z,15.40
2022-10-23T16:51:57.913Z,15.30
2022-10-23T16:54:30.715Z,15.30
2022-10-23T16:57:02.309Z,15.30
2022-10-23T16:59:32.693Z,15.30
2022-10-23T17:02:03.670Z,15.20
2022-10-23T17:04:35.967Z,15.20
2022-10-23T17:07:13.256Z,15.20
2022-10-23T17:09:47.821Z,15.10
2022-10-23T17:12:22.076Z,15.10
2022-10-23T17:14:52.798Z,15.00
2022-10-23T17:17:22.687Z,15.00
2022-10-23T17:19:55.459Z,14.90
2022-10-23T17:22:37.826Z,14.90
2022-10-23T17:25:10.434Z,14.90
2022-10-23T17:27:39.885Z,14.80
2022-10-23T17:30:14.118Z,14.80
2022-10-23T17:32:45.975Z,14.80
2022-10-23T17:35:17.507Z,14.80
2022-10-23T17:37:50.836Z,14.80
2022-10-23T17:40:25.062Z,14.70
2022-10-23T17:42:54.651Z,14.70
2022-10-23T17:45:25.050Z,14.70
2022-10-23T17:47:54.826Z,14.60
2022-10-23T17:50:25.904Z,14.50
2022-10-23T17:52:57.733Z,14.50
2022-10-23T17:55:29.051Z,14.50
2022-10-23T17:58:02.752Z,14.50
2022-10-23T18:00:34.655Z,14.50
2022-10-23T18:03:06.536Z,14.60
2022-10-23T18:08:15.202Z,14.60
2022-10-23T18:10:45.212Z,14.60
2022-10-23T18:13:19.855Z,14.60
2022-10-23T18:15:52.161Z,14.50
2022-10-23T18:18:22.552Z,14.50
2022-10-23T18:20:54.269Z,14.50
2022-10-23T18:23:30.976Z,14.50
2022-10-23T18:26:05.165Z,14.60
2022-10-23T18:28:40.660Z,14.50
2022-10-23T18:31:11.974Z,14.60
2022-10-23T18:33:43.131Z,14.60
2022-10-23T18:36:20.715Z,14.60
2022-10-23T18:41:26.264Z,14.60
2022-10-23T18:43:56.014Z,14.60
2022-10-23T18:46:26.213Z,14.60
2022-10-23T18:48:59.639Z,14.50
2022-10-23T18:51:33.661Z,14.50
2022-10-23T18:54:07.357Z,14.40
2022-10-23T18:56:38.973Z,14.40
2022-10-23T18:59:14.491Z,14.40
2022-10-23T19:01:49.406Z,14.40
2022-10-23T19:04:23.294Z,14.40
2022-10-23T19:06:54.103Z,14.40
2022-10-23T19:09:26.214Z,14.40
2022-10-23T19:11:56.492Z,14.40
2022-10-23T19:14:27.303Z,14.50
2022-10-23T19:17:08.114Z,14.50
2022-10-23T19:19:42.786Z,14.50
2022-10-23T19:22:14.958Z,14.50
2022-10-23T19:24:54.462Z,14.50
2022-10-23T19:27:29.081Z,14.60
2022-10-23T19:30:06.109Z,14.50
2022-10-23T19:32:36.338Z,14.60
2022-10-23T19:35:10.076Z,14.60
2022-10-23T19:37:40.067Z,14.60
2022-10-23T19:40:20.766Z,14.60
2022-10-23T19:42:52.109Z,14.60
2022-10-23T19:45:23.895Z,14.60
2022-10-23T19:47:56.830Z,14.60
2022-10-23T19:50:29.041Z,14.70
2022-10-23T19:53:05.101Z,14.70
2022-10-23T19:55:36.897Z,14.70
2022-10-23T19:58:10.347Z,14.70
2022-10-23T20:00:44.962Z,14.70
2022-10-23T20:03:22.408Z,14.70
2022-10-23T20:05:55.293Z,14.80
2022-10-23T20:08:25.428Z,14.80
2022-10-23T20:13:43.150Z,14.90
2022-10-23T20:16:21.591Z,14.90
2022-10-23T20:18:54.308Z,14.90
2022-10-23T20:21:24.751Z,14.90
2022-10-23T20:23:54.957Z,14.90
2022-10-23T20:26:25.857Z,14.90
2022-10-23T20:28:57.187Z,14.90
2022-10-23T20:31:28.374Z,14.90
2022-10-23T20:33:59.550Z,14.80
2022-10-23T20:36:33.899Z,14.80
2022-10-23T20:39:09.974Z,14.80
2022-10-23T20:41:42.045Z,14.80
2022-10-23T20:44:18.090Z,14.80
2022-10-23T20:46:47.833Z,14.80
2022-10-23T20:49:18.778Z,14.80
2022-10-23T20:51:55.002Z,14.80
2022-10-23T20:54:42.900Z,14.80
2022-10-23T20:57:17.932Z,14.90
2022-10-23T20:59:50.113Z,15.00
2022-10-23T21:02:19.121Z,14.90
2022-10-23T21:04:50.673Z,14.90
2022-10-23T21:07:20.985Z,14.90
2022-10-23T21:09:50.654Z,14.90
2022-10-23T21:12:22.292Z,14.90
2022-10-23T21:15:07.762Z,15.00
2022-10-23T21:17:39.241Z,15.00
2022-10-23T21:20:09.529Z,15.10
2022-10-23T21:22:38.590Z,15.10
2022-10-23T21:25:09.520Z,15.10
2022-10-23T21:27:41.789Z,15.10
2022-10-23T21:30:13.234Z,15.20
2022-10-23T21:32:44.469Z,15.20
2022-10-23T21:35:16.529Z,15.10
2022-10-23T21:37:45.430Z,15.10
2022-10-23T21:40:15.891Z,15.10
2022-10-23T21:42:46.951Z,15.10
2022-10-23T21:45:16.155Z,15.10
2022-10-23T21:47:46.678Z,15.10
2022-10-23T21:50:19.795Z,15.10
2022-10-23T21:52:52.412Z,15.10
2022-10-23T21:55:21.269Z,15.00
2022-10-23T21:57:52.972Z,15.00
2022-10-23T22:00:22.412Z,14.90
2022-10-23T22:02:54.091Z,14.90
2022-10-23T22:05:23.040Z,15.00
2022-10-23T22:07:55.062Z,15.00
2022-10-23T22:10:31.594Z,15.00
2022-10-23T22:13:08.740Z,15.00
2022-10-23T22:15:38.381Z,15.00
2022-10-23T22:18:10.795Z,15.00
2022-10-23T22:20:40.050Z,15.00
2022-10-23T22:25:53.287Z,15.10
2022-10-23T22:28:24.420Z,15.00
2022-10-23T22:30:55.366Z,15.00
2022-10-23T22:33:24.887Z,14.90
2022-10-23T22:35:54.059Z,14.90
2022-10-23T22:38:22.489Z,14.80
2022-10-23T22:40:55.116Z,14.80
2022-10-23T22:43:25.550Z,14.80
2022-10-23T22:45:55.447Z,14.80
2022-10-23T22:48:24.088Z,14.70
2022-10-23T22:50:53.566Z,14.70
2022-10-23T22:53:22.146Z,14.70
2022-10-23T22:55:52.121Z,14.70
2022-10-23T22:58:21.212Z,14.60
2022-10-23T23:00:54.973Z,14.60
2022-10-23T23:03:24.101Z,14.60
2022-10-23T23:05:56.599Z,14.60
2022-10-23T23:08:28.452Z,14.60
2022-10-23T23:10:58.369Z,14.60
2022-10-23T23:13:30.630Z,14.60
2022-10-23T23:16:05.032Z,14.60
2022-10-23T23:18:36.690Z,14.60
2022-10-23T23:21:07.921Z,14.60
2022-10-23T23:23:38.252Z,14.60
2022-10-23T23:26:10.581Z,14.60
2022-10-23T23:28:42.331Z,14.60
2022-10-23T23:31:17.353Z,14.50
2022-10-23T23:33:47.551Z,14.50
2022-10-23T23:36:22.135Z,14.50
2022-10-23T23:38:55.838Z,14.40
2022-10-23T23:41:25.944Z,14.40
2022-10-23T23:43:56.963Z,14.40
2022-10-23T23:46:30.299Z,14.30
2022-10-23T23:49:02.004Z,14.30
2022-10-23T23:51:32.324Z,14.30
2022-10-23T23:54:03.522Z,14.20
2022-10-23T23:56:35.061Z,14.20
2022-10-23T23:59:05.291Z,14.20
